createdAt,value
2023-01-19T00:00:21.067Z,87.71
2023-01-19T00:02:48.076Z,87.06
2023-01-19T00:05:14.818Z,87.04
2023-01-19T00:07:41.869Z,87.70
2023-01-19T00:10:09.580Z,87.67
2023-01-19T00:12:36.246Z,88.25
2023-01-19T00:15:02.870Z,88.30
2023-01-19T00:17:29.292Z,88.50
2023-01-19T00:19:55.759Z,87.52
2023-01-19T00:22:22.175Z,88.40
2023-01-19T00:24:48.632Z,88.99
2023-01-19T00:27:15.028Z,89.27
2023-01-19T00:29:41.452Z,88.95
2023-01-19T00:32:08.071Z,88.50
2023-01-19T00:34:39.579Z,88.08
2023-01-19T00:37:07.345Z,88.17
2023-01-19T00:39:33.767Z,88.15
2023-01-19T00:42:18.889Z,88.25
2023-01-19T00:44:45.292Z,88.49
2023-01-19T00:47:11.682Z,88.97
2023-01-19T00:49:38.135Z,88.17
2023-01-19T00:52:04.826Z,88.61
2023-01-19T00:54:31.226Z,88.60
2023-01-19T00:56:57.709Z,88.59
2023-01-19T00:59:25.746Z,89.36
2023-01-19T01:01:52.280Z,90.27
2023-01-19T01:04:18.795Z,90.88
2023-01-19T01:06:45.206Z,89.86
2023-01-19T01:09:14.475Z,91.29
2023-01-19T01:11:42.822Z,92.07
2023-01-19T01:14:11.290Z,90.93
2023-01-19T01:16:38.174Z,90.66
2023-01-19T01:19:04.717Z,91.08
2023-01-19T01:21:31.317Z,90.66
2023-01-19T01:23:57.712Z,90.00
2023-01-19T01:26:25.895Z,90.78
2023-01-19T01:28:53.588Z,91.04
2023-01-19T01:31:20.139Z,90.56
2023-01-19T01:33:46.618Z,90.92
2023-01-19T01:36:13.020Z,90.52
2023-01-19T01:38:40.682Z,91.05
2023-01-19T01:41:08.317Z,90.80
2023-01-19T01:43:58.165Z,91.24
2023-01-19T01:46:26.862Z,91.27
2023-01-19T01:49:13.336Z,91.17
2023-01-19T01:51:47.169Z,91.81
2023-01-19T01:54:23.110Z,91.09
2023-01-19T01:56:56.860Z,91.92
2023-01-19T01:59:27.979Z,90.66
2023-01-19T02:02:18.494Z,91.10
2023-01-19T02:04:51.481Z,91.20
2023-01-19T02:07:45.405Z,90.12
2023-01-19T02:10:30.542Z,89.91
2023-01-19T02:13:16.113Z,90.20
2023-01-19T02:15:43.739Z,90.72
2023-01-19T02:18:10.820Z,90.23
2023-01-19T02:30:00.967Z,91.09
2023-01-19T02:32:28.090Z,91.65
2023-01-19T02:34:55.049Z,91.26
2023-01-19T02:37:21.963Z,91.26
2023-01-19T02:39:54.613Z,91.35
2023-01-19T02:42:29.352Z,91.43
2023-01-19T02:44:57.469Z,91.45
2023-01-19T02:47:24.309Z,91.42
2023-01-19T02:49:58.062Z,91.17
2023-01-19T02:52:25.419Z,90.78
2023-01-19T02:55:18.428Z,91.88
2023-01-19T02:57:58.600Z,91.77
2023-01-19T03:00:36.620Z,91.75
2023-01-19T03:03:23.259Z,90.60
2023-01-19T03:05:57.331Z,91.20
2023-01-19T03:08:38.702Z,91.04
2023-01-19T03:11:12.576Z,90.28
2023-01-19T03:13:50.424Z,90.12
2023-01-19T03:16:24.305Z,90.18
2023-01-19T03:18:55.370Z,89.39
2023-01-19T03:21:23.708Z,90.26
2023-01-19T03:23:51.135Z,90.58
2023-01-19T03:26:27.225Z,90.27
2023-01-19T03:28:56.343Z,90.40
2023-01-19T03:31:26.092Z,90.50
2023-01-19T03:34:00.812Z,90.34
2023-01-19T03:36:35.903Z,90.38
2023-01-19T03:39:04.912Z,89.94
2023-01-19T03:41:34.248Z,90.48
2023-01-19T03:44:01.313Z,90.89
2023-01-19T03:46:28.730Z,90.56
2023-01-19T03:48:55.207Z,90.80
2023-01-19T03:51:22.009Z,90.84
2023-01-19T03:53:49.977Z,90.46
2023-01-19T03:56:24.866Z,90.84
2023-01-19T03:58:51.764Z,91.17
2023-01-19T04:01:22.722Z,91.15
2023-01-19T04:03:50.448Z,90.64
2023-01-19T04:06:17.540Z,90.83
2023-01-19T04:08:43.991Z,90.77
2023-01-19T04:11:10.391Z,91.33
2023-01-19T04:13:36.808Z,90.50
2023-01-19T04:16:04.602Z,90.30
2023-01-19T04:18:33.911Z,90.69
2023-01-19T04:21:06.774Z,91.65
2023-01-19T04:23:33.791Z,92.01
2023-01-19T04:26:01.773Z,91.43
2023-01-19T04:28:28.267Z,90.24
2023-01-19T04:30:54.760Z,89.59
2023-01-19T04:33:22.482Z,89.40
2023-01-19T04:35:51.541Z,89.33
2023-01-19T04:38:19.972Z,89.91
2023-01-19T04:40:47.042Z,90.28
2023-01-19T04:43:14.216Z,91.18
2023-01-19T04:45:40.884Z,90.95
2023-01-19T04:48:07.272Z,91.15
2023-01-19T04:50:33.675Z,91.58
2023-01-19T04:53:01.127Z,91.92
2023-01-19T04:55:28.031Z,91.67
2023-01-19T04:57:54.424Z,91.60
2023-01-19T05:00:21.524Z,91.80
2023-01-19T05:02:47.982Z,91.46
2023-01-19T05:05:14.412Z,92.37
2023-01-19T05:07:40.885Z,92.74
2023-01-19T05:10:07.988Z,92.66
2023-01-19T05:12:34.415Z,92.92
2023-01-19T05:15:01.784Z,93.51
2023-01-19T05:17:28.261Z,93.27
2023-01-19T05:19:54.664Z,92.84
2023-01-19T05:22:21.109Z,93.05
2023-01-19T05:24:47.518Z,92.97
2023-01-19T05:27:13.951Z,93.22
2023-01-19T05:29:40.335Z,93.17
2023-01-19T05:32:06.790Z,93.64
2023-01-19T05:34:33.206Z,93.33
2023-01-19T05:36:59.595Z,93.67
2023-01-19T05:39:26.710Z,93.96
2023-01-19T05:41:53.123Z,93.56
2023-01-19T05:44:19.515Z,94.05
2023-01-19T05:46:46.107Z,93.71
2023-01-19T05:49:12.848Z,93.50
2023-01-19T05:51:40.392Z,93.17
2023-01-19T05:54:07.996Z,92.89
2023-01-19T05:56:35.517Z,92.85
2023-01-19T05:59:02.273Z,93.17
2023-01-19T06:01:28.814Z,93.58
2023-01-19T06:03:55.390Z,93.10
2023-01-19T06:06:21.798Z,92.94
2023-01-19T06:08:48.217Z,92.67
2023-01-19T06:11:14.667Z,92.41
2023-01-19T06:13:42.156Z,92.57
2023-01-19T06:16:09.207Z,92.16
2023-01-19T06:18:35.907Z,92.77
2023-01-19T06:21:09.470Z,93.25
2023-01-19T06:23:36.075Z,93.36
2023-01-19T06:26:03.736Z,93.65
2023-01-19T06:28:30.309Z,92.94
2023-01-19T06:30:57.177Z,92.98
2023-01-19T06:33:24.551Z,92.78
2023-01-19T06:35:51.433Z,92.13
2023-01-19T06:38:18.574Z,92.28
2023-01-19T06:40:45.987Z,92.64
2023-01-19T06:43:13.556Z,92.24
2023-01-19T06:45:39.971Z,92.28
2023-01-19T06:48:06.421Z,91.70
2023-01-19T06:50:32.856Z,92.09
2023-01-19T06:52:59.602Z,92.13
2023-01-19T06:55:27.924Z,92.25
2023-01-19T06:57:59.110Z,92.26
2023-01-19T07:00:25.948Z,91.92
2023-01-19T07:02:52.719Z,91.96
2023-01-19T07:05:19.119Z,91.69
2023-01-19T07:07:51.911Z,91.32
2023-01-19T07:10:18.347Z,91.08
2023-01-19T07:12:47.201Z,91.71
2023-01-19T07:15:15.406Z,91.33
2023-01-19T07:17:42.212Z,91.09
2023-01-19T07:20:15.592Z,91.43
2023-01-19T07:22:46.629Z,91.70
2023-01-19T07:25:13.648Z,91.82
2023-01-19T07:27:40.515Z,92.00
2023-01-19T07:30:08.267Z,92.76
2023-01-19T07:32:34.836Z,92.37
2023-01-19T07:35:01.199Z,92.10
2023-01-19T07:37:27.593Z,92.14
2023-01-19T07:39:54.072Z,92.21
2023-01-19T07:42:20.642Z,91.56
2023-01-19T07:44:47.037Z,92.31
2023-01-19T07:47:13.620Z,92.20
2023-01-19T07:49:40.185Z,92.36
2023-01-19T07:52:06.758Z,91.70
2023-01-19T07:54:33.524Z,91.11
2023-01-19T07:57:03.352Z,91.14
2023-01-19T07:59:31.037Z,91.69
2023-01-19T08:01:59.313Z,92.04
2023-01-19T08:04:27.257Z,91.55
2023-01-19T08:06:54.131Z,92.17
2023-01-19T08:09:20.880Z,91.60
2023-01-19T08:11:47.299Z,91.47
2023-01-19T08:14:13.760Z,92.05
2023-01-19T08:16:40.223Z,91.29
2023-01-19T08:19:06.675Z,91.14
2023-01-19T08:21:33.339Z,91.55
2023-01-19T08:23:59.776Z,91.04
2023-01-19T08:26:33.822Z,91.30
2023-01-19T08:29:05.446Z,90.71
2023-01-19T08:31:32.193Z,91.13
2023-01-19T08:33:58.693Z,91.32
2023-01-19T08:36:25.199Z,91.70
2023-01-19T08:38:51.836Z,91.37
2023-01-19T08:41:18.316Z,91.25
2023-01-19T08:43:45.440Z,91.23
2023-01-19T08:46:12.611Z,91.04
2023-01-19T08:48:40.028Z,91.34
2023-01-19T08:51:06.573Z,90.57
2023-01-19T08:53:32.993Z,90.84
2023-01-19T08:56:02.429Z,90.75
2023-01-19T08:58:28.989Z,90.52
2023-01-19T09:00:55.659Z,91.19
2023-01-19T09:03:22.770Z,90.42
2023-01-19T09:05:49.453Z,89.96
2023-01-19T09:08:16.432Z,89.74
2023-01-19T09:10:48.424Z,89.90
2023-01-19T09:13:15.620Z,89.95
2023-01-19T09:15:43.163Z,89.87
2023-01-19T09:18:13.961Z,90.02
2023-01-19T09:20:42.716Z,89.59
2023-01-19T09:23:13.798Z,89.01
2023-01-19T09:25:41.086Z,89.06
2023-01-19T09:28:09.460Z,89.48
2023-01-19T09:30:39.185Z,88.99
2023-01-19T09:33:12.996Z,89.54
2023-01-19T09:35:39.839Z,88.94
2023-01-19T09:38:08.803Z,88.39
2023-01-19T09:40:37.016Z,88.28
2023-01-19T09:43:12.550Z,88.80
2023-01-19T09:45:48.124Z,88.34
2023-01-19T09:48:43.811Z,88.17
2023-01-19T09:51:16.690Z,87.68
2023-01-19T09:53:56.288Z,87.50
2023-01-19T09:56:24.136Z,87.58
2023-01-19T09:58:51.471Z,87.55
2023-01-19T10:01:30.369Z,86.99
2023-01-19T10:04:30.393Z,86.54
2023-01-19T10:07:29.117Z,86.72
2023-01-19T10:10:07.472Z,86.11
2023-01-19T10:13:08.948Z,86.68
2023-01-19T10:15:38.324Z,85.51
2023-01-19T10:18:12.692Z,85.38
2023-01-19T10:20:48.937Z,85.90
2023-01-19T10:23:27.818Z,85.67
2023-01-19T10:25:55.412Z,85.70
2023-01-19T10:28:25.348Z,85.74
2023-01-19T10:30:54.235Z,85.13
2023-01-19T10:33:20.682Z,85.41
2023-01-19T10:35:48.724Z,85.20
2023-01-19T10:38:19.782Z,85.45
2023-01-19T10:40:50.595Z,85.06
2023-01-19T10:43:34.955Z,85.39
2023-01-19T10:46:05.973Z,84.75
2023-01-19T10:48:39.753Z,84.04
2023-01-19T10:51:06.448Z,84.54
2023-01-19T10:53:32.985Z,84.10
2023-01-19T10:56:22.916Z,84.66
2023-01-19T10:58:49.388Z,84.58
2023-01-19T11:01:24.921Z,84.13
2023-01-19T11:03:53.332Z,84.50
2023-01-19T11:06:21.053Z,83.64
2023-01-19T11:08:51.216Z,83.61
2023-01-19T11:11:23.214Z,83.10
2023-01-19T11:14:13.912Z,82.65
2023-01-19T11:16:41.158Z,83.34
2023-01-19T11:19:19.640Z,83.64
2023-01-19T11:21:46.050Z,82.92
2023-01-19T11:24:14.737Z,82.74
2023-01-19T11:26:50.304Z,82.33
2023-01-19T11:29:27.306Z,81.90
2023-01-19T11:31:54.914Z,81.86
2023-01-19T11:34:37.368Z,82.48
2023-01-19T11:37:06.418Z,81.87
2023-01-19T11:39:48.369Z,81.32
2023-01-19T11:42:16.043Z,81.13
2023-01-19T11:44:58.774Z,80.50
2023-01-19T11:47:30.400Z,80.48
2023-01-19T11:50:23.518Z,79.52
2023-01-19T11:53:11.452Z,79.98
2023-01-19T11:55:46.941Z,79.67
2023-01-19T11:58:16.572Z,79.48
2023-01-19T12:00:46.242Z,78.83
2023-01-19T12:03:22.802Z,78.54
2023-01-19T12:05:53.033Z,78.86
2023-01-19T12:08:27.812Z,78.55
2023-01-19T12:10:59.225Z,77.73
2023-01-19T12:13:27.370Z,77.91
2023-01-19T12:16:01.051Z,77.44
2023-01-19T12:18:36.883Z,77.34
2023-01-19T12:21:04.328Z,77.37
2023-01-19T12:23:56.321Z,77.01
2023-01-19T12:26:30.733Z,76.66
2023-01-19T12:29:12.041Z,76.65
2023-01-19T12:31:40.646Z,76.57
2023-01-19T12:34:31.105Z,76.50
2023-01-19T12:37:28.689Z,76.66
2023-01-19T12:39:57.123Z,76.27
2023-01-19T12:42:24.494Z,76.91
2023-01-19T12:45:05.654Z,76.41
2023-01-19T12:47:32.173Z,75.70
2023-01-19T12:50:06.846Z,74.73
2023-01-19T12:52:41.037Z,75.05
2023-01-19T12:55:13.520Z,75.27
2023-01-19T12:58:14.557Z,74.18
2023-01-19T13:00:45.445Z,74.30
2023-01-19T13:03:18.129Z,74.30
2023-01-19T13:05:44.556Z,74.83
2023-01-19T13:08:13.610Z,73.81
2023-01-19T13:11:09.580Z,74.19
2023-01-19T13:13:42.237Z,73.91
2023-01-19T13:16:37.422Z,74.88
2023-01-19T13:19:06.878Z,74.28
2023-01-19T13:21:48.031Z,74.13
2023-01-19T13:24:15.760Z,74.29
2023-01-19T13:26:55.033Z,74.87
2023-01-19T13:29:34.484Z,74.48
2023-01-19T13:32:12.717Z,74.49
2023-01-19T13:34:39.069Z,74.55
2023-01-19T13:37:06.232Z,74.18
2023-01-19T13:39:36.989Z,73.97
2023-01-19T13:42:18.465Z,73.84
2023-01-19T13:44:52.296Z,73.96
2023-01-19T13:47:22.573Z,74.07
2023-01-19T13:49:55.558Z,74.49
2023-01-19T13:52:27.509Z,74.25
2023-01-19T13:55:02.508Z,74.14
2023-01-19T13:57:32.223Z,74.85
2023-01-19T14:00:09.538Z,74.10
2023-01-19T14:02:39.314Z,74.07
2023-01-19T14:05:20.036Z,74.81
2023-01-19T14:07:46.660Z,74.81
2023-01-19T14:10:16.568Z,75.15
2023-01-19T14:12:58.501Z,75.34
2023-01-19T14:15:25.652Z,74.67
2023-01-19T14:18:10.467Z,74.86
2023-01-19T14:20:37.735Z,74.86
2023-01-19T14:23:05.316Z,74.65
2023-01-19T14:25:35.168Z,74.61
2023-01-19T14:28:27.790Z,74.26
2023-01-19T14:31:17.280Z,74.49
2023-01-19T14:33:46.862Z,74.91
2023-01-19T14:36:17.884Z,75.51
2023-01-19T14:38:48.484Z,75.96
2023-01-19T14:41:24.306Z,76.65
2023-01-19T14:43:50.746Z,77.38
2023-01-19T14:46:20.728Z,77.64
2023-01-19T14:48:53.247Z,78.22
2023-01-19T14:51:23.336Z,78.49
2023-01-19T14:53:56.368Z,78.62
2023-01-19T14:56:32.580Z,78.39
2023-01-19T14:59:01.446Z,78.57
2023-01-19T15:01:28.632Z,78.78
2023-01-19T15:03:58.566Z,79.20
2023-01-19T15:06:26.345Z,79.15
2023-01-19T15:08:53.463Z,79.28
2023-01-19T15:11:32.705Z,79.61
2023-01-19T15:13:59.811Z,79.90
2023-01-19T15:16:27.736Z,79.67
2023-01-19T15:18:54.381Z,79.58
2023-01-19T15:21:23.691Z,80.19
2023-01-19T15:23:50.496Z,80.37
2023-01-19T15:26:18.917Z,80.29
2023-01-19T15:28:45.868Z,80.16
2023-01-19T15:31:17.908Z,80.71
2023-01-19T15:33:44.801Z,80.83
2023-01-19T15:36:17.931Z,81.21
2023-01-19T15:38:45.527Z,81.60
2023-01-19T15:41:24.043Z,81.49
2023-01-19T15:43:50.885Z,81.76
2023-01-19T15:46:20.605Z,82.70
2023-01-19T15:48:47.971Z,82.49
2023-01-19T15:51:16.598Z,82.57
2023-01-19T15:53:45.174Z,83.34
2023-01-19T15:56:15.190Z,83.14
2023-01-19T15:58:42.901Z,83.08
2023-01-19T16:01:18.033Z,83.25
2023-01-19T16:03:45.172Z,83.39
2023-01-19T16:06:12.939Z,83.24
2023-01-19T16:08:39.965Z,83.13
2023-01-19T16:11:08.688Z,83.96
2023-01-19T16:13:35.210Z,83.46
2023-01-19T16:16:03.710Z,83.91
2023-01-19T16:18:30.436Z,83.49
2023-01-19T16:20:56.831Z,83.73
2023-01-19T16:23:23.239Z,84.33
2023-01-19T16:26:10.453Z,84.27
2023-01-19T16:28:37.633Z,84.21
2023-01-19T16:31:04.606Z,84.58
2023-01-19T16:33:31.056Z,84.04
2023-01-19T16:35:57.481Z,85.13
2023-01-19T16:38:24.014Z,84.42
2023-01-19T16:40:50.425Z,84.90
2023-01-19T16:43:18.202Z,84.53
2023-01-19T16:45:58.034Z,83.83
2023-01-19T16:48:25.104Z,84.41
2023-01-19T16:51:05.828Z,83.87
2023-01-19T16:53:36.880Z,84.20
2023-01-19T16:56:07.271Z,84.29
2023-01-19T16:58:33.883Z,84.48
2023-01-19T17:01:00.413Z,84.80
2023-01-19T17:03:27.091Z,84.63
2023-01-19T17:05:53.549Z,84.20
2023-01-19T17:08:20.646Z,84.30
2023-01-19T17:10:48.082Z,84.09
2023-01-19T17:13:14.764Z,83.66
2023-01-19T17:15:41.157Z,83.54
2023-01-19T17:18:07.576Z,84.00
2023-01-19T17:20:34.098Z,83.60
2023-01-19T17:23:00.542Z,83.52
2023-01-19T17:25:27.037Z,84.13
2023-01-19T17:27:53.436Z,84.26
2023-01-19T17:30:20.348Z,84.08
2023-01-19T17:32:46.787Z,84.24
2023-01-19T17:35:13.219Z,84.29
2023-01-19T17:37:39.616Z,84.27
2023-01-19T17:40:06.613Z,83.94
2023-01-19T17:42:33.005Z,83.16
2023-01-19T17:44:59.434Z,83.22
2023-01-19T17:47:25.974Z,83.38
2023-01-19T17:49:52.435Z,82.84
2023-01-19T17:52:18.867Z,83.66
2023-01-19T17:54:45.251Z,83.00
2023-01-19T17:57:11.649Z,83.15
2023-01-19T17:59:40.865Z,83.60
2023-01-19T18:02:09.171Z,82.73
2023-01-19T18:04:38.511Z,83.09
2023-01-19T18:07:05.007Z,83.55
2023-01-19T18:09:31.536Z,83.02
2023-01-19T18:11:58.164Z,82.38
2023-01-19T18:14:24.589Z,82.97
2023-01-19T18:16:50.989Z,83.47
2023-01-19T18:19:17.388Z,83.59
2023-01-19T18:21:43.789Z,83.40
2023-01-19T18:24:10.185Z,83.95
2023-01-19T18:26:37.945Z,83.33
2023-01-19T18:29:04.842Z,83.76
2023-01-19T18:31:31.428Z,83.12
2023-01-19T18:33:58.006Z,82.89
2023-01-19T18:36:24.511Z,83.44
2023-01-19T18:38:50.923Z,83.31
2023-01-19T18:41:20.396Z,83.24
2023-01-19T18:43:47.641Z,83.40
2023-01-19T18:46:15.076Z,83.36
2023-01-19T18:48:41.682Z,83.84
2023-01-19T18:51:13.178Z,83.73
2023-01-19T18:53:40.139Z,84.14
2023-01-19T18:56:07.232Z,84.40
2023-01-19T18:58:37.128Z,84.03
2023-01-19T19:01:03.665Z,83.72
2023-01-19T19:03:31.002Z,84.31
2023-01-19T19:06:02.442Z,84.16
2023-01-19T19:08:28.875Z,84.02
2023-01-19T19:10:55.311Z,83.78
2023-01-19T19:13:21.867Z,83.93
2023-01-19T19:15:48.311Z,85.07
2023-01-19T19:18:16.206Z,84.77
2023-01-19T19:20:43.446Z,85.25
2023-01-19T19:23:13.188Z,85.21
2023-01-19T19:25:39.586Z,84.94
2023-01-19T19:28:06.440Z,85.31
2023-01-19T19:30:34.491Z,86.17
2023-01-19T19:33:01.213Z,85.52
2023-01-19T19:35:27.707Z,86.34
2023-01-19T19:37:57.414Z,86.63
2023-01-19T19:40:26.197Z,86.31
2023-01-19T19:42:52.732Z,87.00
2023-01-19T19:45:19.464Z,87.60
2023-01-19T19:47:45.993Z,88.14
2023-01-19T19:50:12.812Z,88.31
2023-01-19T19:52:42.294Z,87.60
2023-01-19T19:55:10.152Z,87.93
2023-01-19T19:57:36.811Z,88.27
2023-01-19T20:00:05.160Z,88.22
2023-01-19T20:02:35.667Z,87.94
2023-01-19T20:05:02.311Z,88.50
2023-01-19T20:07:28.837Z,88.96
2023-01-19T20:09:55.347Z,88.17
2023-01-19T20:12:21.939Z,87.35
2023-01-19T20:14:48.367Z,87.13
2023-01-19T20:17:14.799Z,86.85
2023-01-19T20:19:41.196Z,86.95
2023-01-19T20:22:07.641Z,87.35
2023-01-19T20:24:34.094Z,87.37
2023-01-19T20:27:00.510Z,88.07
2023-01-19T20:29:26.941Z,88.71
2023-01-19T20:31:55.187Z,89.00
2023-01-19T20:34:24.613Z,89.63
2023-01-19T20:36:53.372Z,89.31
2023-01-19T20:39:21.125Z,90.21
2023-01-19T20:41:50.087Z,89.59
2023-01-19T20:44:20.278Z,89.63
2023-01-19T20:46:46.903Z,89.96
2023-01-19T20:49:13.391Z,90.57
2023-01-19T20:51:43.413Z,91.13
2023-01-19T20:54:11.303Z,90.55
2023-01-19T20:56:38.111Z,90.89
2023-01-19T20:59:04.554Z,90.20
2023-01-19T21:01:31.118Z,90.40
2023-01-19T21:03:57.636Z,89.82
2023-01-19T21:06:24.904Z,90.21
2023-01-19T21:08:51.807Z,90.39
2023-01-19T21:11:20.869Z,90.99
2023-01-19T21:13:48.612Z,91.49
2023-01-19T21:16:15.705Z,92.10
2023-01-19T21:18:42.126Z,92.35
2023-01-19T21:21:20.762Z,93.42
2023-01-19T21:23:50.996Z,94.18
2023-01-19T21:26:17.699Z,95.25
2023-01-19T21:28:44.232Z,94.83
2023-01-19T21:31:13.199Z,94.57
2023-01-19T21:33:40.712Z,93.98
2023-01-19T21:36:08.391Z,93.88
2023-01-19T21:38:36.524Z,94.44
2023-01-19T21:41:12.457Z,93.64
2023-01-19T21:43:40.897Z,93.47
2023-01-19T21:46:18.582Z,93.93
2023-01-19T21:48:45.913Z,93.86
2023-01-19T21:51:12.589Z,94.71
2023-01-19T21:53:39.590Z,94.78
2023-01-19T21:56:10.391Z,96.36
2023-01-19T21:58:37.299Z,95.85
2023-01-19T22:01:06.973Z,95.74
2023-01-19T22:03:33.601Z,96.71
2023-01-19T22:06:07.805Z,96.63
2023-01-19T22:08:34.314Z,96.47
2023-01-19T22:11:05.462Z,98.18
2023-01-19T22:13:32.733Z,97.34
2023-01-19T22:16:03.578Z,98.05
2023-01-19T22:18:30.325Z,97.91
2023-01-19T22:20:56.765Z,98.15
2023-01-19T22:23:23.193Z,97.89
2023-01-19T22:25:49.600Z,97.35
2023-01-19T22:28:16.025Z,97.33
2023-01-19T22:30:42.803Z,97.74
2023-01-19T22:33:09.276Z,98.88
2023-01-19T22:35:35.656Z,98.86
2023-01-19T22:38:02.116Z,98.98
2023-01-19T22:40:28.494Z,99.07
2023-01-19T22:42:54.897Z,99.91
2023-01-19T22:45:21.767Z,99.38
2023-01-19T22:47:48.198Z,100.00
2023-01-19T22:50:14.855Z,100.00
2023-01-19T22:52:42.430Z,100.00
2023-01-19T22:55:09.302Z,100.00
2023-01-19T22:57:36.588Z,100.00
2023-01-19T23:00:09.189Z,100.00
2023-01-19T23:02:35.664Z,100.00
2023-01-19T23:05:02.105Z,100.00
2023-01-19T23:07:28.520Z,100.00
2023-01-19T23:09:54.932Z,100.00
2023-01-19T23:12:21.341Z,100.00
2023-01-19T23:14:47.768Z,100.00
2023-01-19T23:17:14.183Z,100.00
2023-01-19T23:19:40.603Z,100.00
2023-01-19T23:22:07.018Z,100.00
2023-01-19T23:24:33.420Z,100.00
2023-01-19T23:27:01.493Z,100.00
2023-01-19T23:29:27.911Z,100.00
2023-01-19T23:31:55.913Z,100.00
2023-01-19T23:34:22.312Z,100.00
2023-01-19T23:36:48.710Z,100.00
2023-01-19T23:39:21.177Z,100.00
2023-01-19T23:41:48.175Z,100.00
2023-01-19T23:44:15.056Z,100.00
2023-01-19T23:46:41.463Z,100.00
2023-01-19T23:49:07.908Z,99.78
2023-01-19T23:51:34.830Z,100.00
2023-01-19T23:54:01.977Z,99.61
2023-01-19T23:56:31.751Z,98.99
2023-01-19T23:59:03.744Z,99.24
